createdAt,value
2023-05-10T00:02:15.644Z,90.10
2023-05-10T00:04:44.734Z,90.10
2023-05-10T00:07:11.689Z,90.20
2023-05-10T00:09:38.721Z,90.10
2023-05-10T00:12:05.971Z,90.10
2023-05-10T00:14:32.942Z,90.00
2023-05-10T00:16:59.945Z,90.30
2023-05-10T00:19:26.926Z,90.40
2023-05-10T00:21:56.512Z,90.60
2023-05-10T00:24:26.177Z,90.70
2023-05-10T00:26:55.666Z,90.70
2023-05-10T00:29:22.704Z,90.70
2023-05-10T00:31:49.730Z,90.80
2023-05-10T00:34:16.814Z,90.50
2023-05-10T00:36:43.737Z,90.50
2023-05-10T00:39:10.685Z,90.50
2023-05-10T00:41:37.577Z,90.30
2023-05-10T00:44:08.813Z,90.20
2023-05-10T00:46:35.883Z,90.30
2023-05-10T00:49:02.935Z,90.10
2023-05-10T00:51:30.444Z,90.20
2023-05-10T00:53:57.467Z,90.10
2023-05-10T00:56:27.982Z,90.20
2023-05-10T00:58:57.555Z,90.20
2023-05-10T01:01:28.912Z,90.00
2023-05-10T01:03:56.314Z,89.80
2023-05-10T01:06:23.266Z,89.60
2023-05-10T01:08:52.425Z,89.70
2023-05-10T01:11:23.822Z,89.80
2023-05-10T01:13:56.795Z,89.80
2023-05-10T01:16:26.443Z,89.70
2023-05-10T01:18:53.483Z,89.70
2023-05-10T01:21:23.145Z,89.70
2023-05-10T01:24:21.912Z,89.70
2023-05-10T01:27:09.039Z,89.30
2023-05-10T01:29:49.021Z,89.40
2023-05-10T01:32:30.659Z,89.30
2023-05-10T01:35:35.855Z,89.20
2023-05-10T01:38:10.618Z,89.00
2023-05-10T01:41:06.993Z,89.00
2023-05-10T01:43:40.386Z,88.90
2023-05-10T01:46:12.074Z,89.20
2023-05-10T01:48:48.371Z,89.00
2023-05-10T01:51:23.004Z,88.80
2023-05-10T01:53:49.921Z,89.00
2023-05-10T01:56:19.223Z,89.30
2023-05-10T01:58:52.031Z,89.10
2023-05-10T02:01:22.009Z,89.00
2023-05-10T02:03:52.101Z,89.20
2023-05-10T02:06:22.259Z,89.40
2023-05-10T02:08:49.272Z,89.30
2023-05-10T02:11:16.222Z,89.40
2023-05-10T02:13:43.753Z,89.50
2023-05-10T02:16:13.271Z,89.20
2023-05-10T02:18:40.274Z,89.30
2023-05-10T02:21:07.346Z,89.60
2023-05-10T02:23:39.112Z,89.40
2023-05-10T02:26:06.880Z,89.00
2023-05-10T02:28:36.249Z,89.10
2023-05-10T02:31:03.566Z,89.00
2023-05-10T02:33:32.815Z,89.30
2023-05-10T02:36:02.269Z,89.20
2023-05-10T02:38:31.737Z,89.10
2023-05-10T02:41:03.201Z,89.20
2023-05-10T02:43:30.335Z,89.10
2023-05-10T02:45:59.766Z,89.00
2023-05-10T02:48:31.354Z,89.10
2023-05-10T02:51:04.336Z,89.30
2023-05-10T02:53:37.444Z,89.20
2023-05-10T02:56:10.441Z,89.60
2023-05-10T02:58:37.542Z,89.60
2023-05-10T03:01:04.818Z,89.60
2023-05-10T03:03:34.218Z,89.60
2023-05-10T03:06:03.540Z,89.70
2023-05-10T03:08:33.111Z,89.80
2023-05-10T03:11:03.878Z,90.20
2023-05-10T03:13:36.355Z,90.10
2023-05-10T03:16:28.833Z,90.00
2023-05-10T03:19:12.125Z,89.90
2023-05-10T03:21:39.397Z,89.80
2023-05-10T03:24:13.015Z,89.70
2023-05-10T03:26:44.627Z,89.80
2023-05-10T03:29:16.117Z,89.80
2023-05-10T03:31:45.590Z,89.80
2023-05-10T03:34:20.150Z,89.80
2023-05-10T03:36:47.164Z,89.80
2023-05-10T03:39:18.817Z,89.80
2023-05-10T03:41:51.347Z,89.90
2023-05-10T03:44:21.107Z,89.90
2023-05-10T03:46:50.513Z,89.90
2023-05-10T03:49:20.123Z,89.80
2023-05-10T03:51:47.305Z,89.80
2023-05-10T03:54:16.735Z,89.80
2023-05-10T03:56:43.650Z,89.70
2023-05-10T03:59:15.506Z,89.80
2023-05-10T04:01:42.555Z,89.70
2023-05-10T04:04:09.848Z,89.90
2023-05-10T04:06:36.870Z,90.00
2023-05-10T04:09:05.413Z,89.90
2023-05-10T04:11:34.637Z,90.00
2023-05-10T04:14:04.033Z,90.00
2023-05-10T04:16:33.509Z,90.00
2023-05-10T04:19:03.840Z,90.00
2023-05-10T04:21:35.383Z,90.00
2023-05-10T04:24:04.626Z,90.20
2023-05-10T04:26:32.362Z,90.20
2023-05-10T04:29:04.144Z,90.20
2023-05-10T04:31:37.333Z,90.20
2023-05-10T04:34:05.432Z,90.20
2023-05-10T04:36:34.882Z,90.20
2023-05-10T04:39:06.520Z,90.10
2023-05-10T04:41:33.508Z,90.10
2023-05-10T04:44:00.423Z,90.10
2023-05-10T04:46:27.433Z,90.10
2023-05-10T04:48:54.356Z,90.20
2023-05-10T04:51:23.396Z,90.30
2023-05-10T04:54:05.307Z,90.40
2023-05-10T04:56:33.252Z,90.50
2023-05-10T04:59:02.447Z,90.60
2023-05-10T05:01:31.862Z,90.70
2023-05-10T05:03:59.054Z,90.70
2023-05-10T05:06:26.754Z,90.80
2023-05-10T05:08:53.771Z,90.80
2023-05-10T05:11:23.418Z,90.70
2023-05-10T05:13:53.344Z,90.70
2023-05-10T05:16:20.366Z,90.70
2023-05-10T05:18:49.707Z,90.60
2023-05-10T05:21:23.344Z,90.60
2023-05-10T05:23:52.837Z,90.50
2023-05-10T05:26:22.360Z,90.50
2023-05-10T05:28:49.850Z,90.40
2023-05-10T05:31:18.940Z,90.30
2023-05-10T05:33:48.127Z,90.00
2023-05-10T05:36:15.046Z,89.90
2023-05-10T05:38:44.135Z,89.50
2023-05-10T05:41:13.520Z,88.30
2023-05-10T05:43:40.563Z,88.20
2023-05-10T05:46:07.492Z,87.40
2023-05-10T05:48:36.820Z,86.40
2023-05-10T05:51:05.165Z,86.10
2023-05-10T05:53:34.434Z,85.00
2023-05-10T05:56:04.698Z,83.70
2023-05-10T05:58:31.693Z,82.10
2023-05-10T06:01:03.184Z,81.30
2023-05-10T06:03:30.238Z,80.90
2023-05-10T06:05:59.306Z,80.50
2023-05-10T06:08:28.829Z,81.10
2023-05-10T06:10:58.324Z,79.20
2023-05-10T06:13:33.309Z,77.50
2023-05-10T06:16:06.861Z,76.60
2023-05-10T06:18:33.773Z,76.50
2023-05-10T06:21:00.870Z,77.00
2023-05-10T06:23:33.155Z,73.50
2023-05-10T06:26:02.321Z,75.90
2023-05-10T06:28:29.246Z,76.40
2023-05-10T06:30:56.158Z,73.90
2023-05-10T06:33:23.089Z,75.00
2023-05-10T06:35:50.066Z,74.60
2023-05-10T06:38:19.510Z,76.50
2023-05-10T06:40:48.621Z,76.90
2023-05-10T06:43:15.653Z,77.50
2023-05-10T06:45:42.590Z,78.30
2023-05-10T06:48:11.781Z,78.90
2023-05-10T06:50:40.915Z,79.30
2023-05-10T06:53:07.830Z,79.40
2023-05-10T06:55:37.037Z,79.60
2023-05-10T06:58:06.127Z,80.70
2023-05-10T07:00:33.102Z,81.10
2023-05-10T07:03:02.348Z,80.90
2023-05-10T07:05:30.485Z,80.30
2023-05-10T07:07:57.552Z,80.20
2023-05-10T07:10:27.632Z,80.20
2023-05-10T07:12:54.642Z,79.20
2023-05-10T07:15:26.210Z,76.70
2023-05-10T07:17:58.565Z,72.30
2023-05-10T07:20:27.769Z,69.40
2023-05-10T07:22:57.216Z,70.70
2023-05-10T07:25:28.565Z,68.90
2023-05-10T07:27:55.498Z,66.10
2023-05-10T07:30:27.519Z,65.60
2023-05-10T07:32:54.503Z,63.50
2023-05-10T07:35:21.423Z,62.30
2023-05-10T07:37:50.742Z,64.20
2023-05-10T07:40:22.197Z,61.60
2023-05-10T07:42:51.541Z,61.00
2023-05-10T07:45:18.891Z,63.10
2023-05-10T07:47:46.026Z,59.20
2023-05-10T07:50:16.488Z,58.50
2023-05-10T07:52:43.422Z,61.60
2023-05-10T07:55:10.616Z,63.90
2023-05-10T07:57:41.054Z,65.50
2023-05-10T08:00:08.699Z,66.00
2023-05-10T08:02:42.215Z,68.30
2023-05-10T08:05:09.338Z,67.90
2023-05-10T08:07:36.451Z,67.80
2023-05-10T08:10:06.360Z,70.10
2023-05-10T08:12:35.582Z,70.70
2023-05-10T08:15:05.145Z,69.90
2023-05-10T08:17:34.471Z,70.60
2023-05-10T08:20:03.985Z,71.60
2023-05-10T08:22:33.302Z,71.00
2023-05-10T08:25:00.253Z,71.20
2023-05-10T08:27:29.594Z,71.60
2023-05-10T08:29:59.445Z,70.60
2023-05-10T08:32:31.033Z,70.90
2023-05-10T08:35:00.269Z,72.60
2023-05-10T08:37:27.240Z,70.10
2023-05-10T08:39:54.216Z,71.70
2023-05-10T08:42:21.710Z,72.00
2023-05-10T08:44:49.748Z,72.70
2023-05-10T08:47:19.594Z,71.30
2023-05-10T08:49:47.634Z,71.30
2023-05-10T08:52:14.540Z,70.10
2023-05-10T08:54:44.075Z,71.60
2023-05-10T08:57:13.928Z,72.00
2023-05-10T08:59:40.977Z,70.60
2023-05-10T09:02:11.151Z,69.50
2023-05-10T09:04:40.479Z,71.30
2023-05-10T09:07:10.738Z,69.90
2023-05-10T09:09:39.930Z,69.90
2023-05-10T09:12:07.827Z,70.60
2023-05-10T09:14:35.240Z,69.50
2023-05-10T09:17:04.746Z,70.10
2023-05-10T09:19:33.909Z,69.40
2023-05-10T09:22:03.525Z,69.10
2023-05-10T09:24:31.134Z,69.00
2023-05-10T09:27:01.015Z,67.20
2023-05-10T09:29:30.083Z,68.60
2023-05-10T09:31:59.501Z,68.40
2023-05-10T09:34:36.572Z,69.70
2023-05-10T09:37:05.458Z,70.50
2023-05-10T09:39:36.450Z,68.80
2023-05-10T09:42:10.767Z,68.50
2023-05-10T09:44:44.462Z,70.80
2023-05-10T09:47:12.187Z,69.60
2023-05-10T09:49:39.119Z,67.90
2023-05-10T09:52:11.462Z,67.30
2023-05-10T09:54:38.353Z,68.90
2023-05-10T09:57:05.307Z,67.10
2023-05-10T09:59:33.766Z,68.50
2023-05-10T10:02:01.253Z,67.00
2023-05-10T10:04:33.839Z,68.30
2023-05-10T10:07:04.790Z,67.90
2023-05-10T10:09:34.541Z,67.10
2023-05-10T10:12:05.744Z,64.70
2023-05-10T10:14:34.810Z,65.40
2023-05-10T10:19:31.868Z,65.60
2023-05-10T10:22:00.009Z,64.10
2023-05-10T10:24:29.142Z,64.10
2023-05-10T10:27:00.329Z,65.00
2023-05-10T10:29:31.474Z,64.10
2023-05-10T10:32:21.924Z,65.30
2023-05-10T10:34:51.363Z,63.40
2023-05-10T10:37:22.932Z,62.70
2023-05-10T10:39:51.452Z,63.30
2023-05-10T10:42:47.832Z,62.30
2023-05-10T10:45:15.141Z,63.90
2023-05-10T10:47:44.259Z,64.00
2023-05-10T10:50:19.554Z,62.00
2023-05-10T10:52:50.555Z,60.40
2023-05-10T10:55:23.376Z,60.30
2023-05-10T10:58:01.204Z,63.30
2023-05-10T11:00:37.691Z,63.50
2023-05-10T11:03:08.415Z,61.90
2023-05-10T11:05:44.912Z,61.60
2023-05-10T11:08:11.982Z,61.00
2023-05-10T11:10:42.181Z,63.00
2023-05-10T11:13:11.399Z,62.90
2023-05-10T11:15:40.962Z,60.90
2023-05-10T11:18:23.750Z,61.60
2023-05-10T11:21:00.933Z,60.40
2023-05-10T11:23:32.333Z,59.70
2023-05-10T11:26:02.412Z,60.90
2023-05-10T11:28:31.693Z,61.00
2023-05-10T11:30:58.687Z,61.50
2023-05-10T11:33:30.665Z,60.80
2023-05-10T11:35:57.925Z,57.60
2023-05-10T11:38:30.087Z,57.90
2023-05-10T11:41:01.528Z,58.90
2023-05-10T11:43:31.826Z,60.00
2023-05-10T11:46:03.845Z,56.40
2023-05-10T11:48:33.403Z,58.50
2023-05-10T11:51:05.995Z,58.20
2023-05-10T11:53:33.301Z,58.30
2023-05-10T11:56:14.040Z,56.40
2023-05-10T11:58:41.105Z,55.40
2023-05-10T12:01:11.436Z,55.90
2023-05-10T12:03:38.534Z,57.20
2023-05-10T12:06:11.139Z,57.30
2023-05-10T12:08:38.081Z,56.20
2023-05-10T12:11:09.022Z,56.40
2023-05-10T12:13:40.491Z,56.00
2023-05-10T12:16:23.862Z,54.40
2023-05-10T12:18:55.198Z,54.20
2023-05-10T12:21:24.768Z,53.90
2023-05-10T12:23:57.523Z,53.80
2023-05-10T12:26:25.935Z,57.70
2023-05-10T12:29:12.295Z,53.50
2023-05-10T12:31:58.917Z,53.40
2023-05-10T12:34:34.642Z,52.70
2023-05-10T12:37:06.318Z,53.30
2023-05-10T12:39:47.129Z,53.00
2023-05-10T12:42:16.304Z,53.60
2023-05-10T12:44:45.561Z,53.70
2023-05-10T12:47:14.914Z,54.10
2023-05-10T12:49:44.003Z,52.10
2023-05-10T12:52:13.030Z,51.80
2023-05-10T12:54:42.177Z,53.20
2023-05-10T12:57:09.132Z,52.40
2023-05-10T12:59:38.061Z,53.00
2023-05-10T13:02:09.957Z,53.10
2023-05-10T13:04:40.433Z,52.70
2023-05-10T13:07:12.322Z,53.40
2023-05-10T13:09:41.468Z,53.90
2023-05-10T13:12:10.863Z,55.20
2023-05-10T13:14:41.633Z,55.60
2023-05-10T13:17:11.108Z,55.40
2023-05-10T13:19:40.487Z,56.80
2023-05-10T13:22:07.415Z,56.10
2023-05-10T13:24:34.457Z,56.00
2023-05-10T13:27:03.748Z,56.50
2023-05-10T13:29:35.411Z,56.70
2023-05-10T13:32:05.448Z,57.30
2023-05-10T13:34:36.639Z,56.50
2023-05-10T13:37:03.698Z,55.80
2023-05-10T13:39:34.336Z,55.30
2023-05-10T13:42:01.337Z,55.40
2023-05-10T13:44:28.263Z,53.80
2023-05-10T13:46:55.308Z,53.40
2023-05-10T13:49:24.683Z,55.40
2023-05-10T13:51:52.015Z,54.40
2023-05-10T13:54:21.293Z,54.70
2023-05-10T13:56:48.403Z,53.10
2023-05-10T13:59:18.311Z,52.50
2023-05-10T14:01:45.371Z,52.40
2023-05-10T14:04:12.472Z,54.10
2023-05-10T14:06:41.713Z,55.50
2023-05-10T14:09:08.629Z,55.80
2023-05-10T14:11:42.764Z,57.70
2023-05-10T14:14:10.189Z,58.90
2023-05-10T14:16:37.143Z,59.80
2023-05-10T14:19:04.248Z,63.30
2023-05-10T14:21:31.764Z,63.20
2023-05-10T14:23:58.726Z,64.20
2023-05-10T14:26:28.378Z,64.30
2023-05-10T14:28:55.420Z,65.70
2023-05-10T14:31:26.917Z,65.50
2023-05-10T14:33:54.216Z,63.90
2023-05-10T14:36:21.168Z,63.10
2023-05-10T14:38:50.330Z,62.60
2023-05-10T14:41:18.544Z,61.30
2023-05-10T14:43:45.494Z,59.90
2023-05-10T14:46:17.422Z,59.30
2023-05-10T14:48:46.730Z,59.60
2023-05-10T14:51:22.756Z,59.90
2023-05-10T14:53:50.538Z,60.40
2023-05-10T14:56:17.575Z,59.00
2023-05-10T14:58:50.411Z,59.10
2023-05-10T15:01:17.398Z,57.70
2023-05-10T15:03:44.636Z,57.70
2023-05-10T15:06:14.619Z,57.30
2023-05-10T15:08:44.432Z,56.40
2023-05-10T15:11:11.389Z,57.50
2023-05-10T15:13:41.368Z,58.10
2023-05-10T15:16:08.392Z,59.10
2023-05-10T15:18:37.562Z,58.90
2023-05-10T15:21:04.511Z,56.00
2023-05-10T15:23:31.490Z,54.40
2023-05-10T15:26:00.528Z,54.80
2023-05-10T15:28:27.422Z,55.30
2023-05-10T15:30:54.424Z,55.70
2023-05-10T15:33:23.829Z,54.50
2023-05-10T15:35:50.747Z,54.20
2023-05-10T15:38:17.641Z,54.10
2023-05-10T15:40:49.508Z,54.50
2023-05-10T15:43:17.193Z,55.60
2023-05-10T15:45:44.258Z,55.00
2023-05-10T15:48:15.753Z,55.90
2023-05-10T15:50:47.649Z,55.10
2023-05-10T15:53:17.684Z,54.80
2023-05-10T15:55:44.629Z,55.70
2023-05-10T15:58:14.103Z,54.10
2023-05-10T16:00:43.562Z,55.10
2023-05-10T16:03:10.497Z,53.20
2023-05-10T16:05:42.341Z,53.60
2023-05-10T16:08:11.751Z,53.00
2023-05-10T16:10:42.276Z,54.50
2023-05-10T16:13:11.668Z,54.10
2023-05-10T16:15:38.580Z,54.00
2023-05-10T16:18:05.847Z,54.60
2023-05-10T16:20:33.026Z,55.20
2023-05-10T16:23:09.907Z,57.90
2023-05-10T16:25:36.987Z,57.80
2023-05-10T16:28:06.324Z,59.10
2023-05-10T16:30:38.809Z,60.30
2023-05-10T16:33:05.849Z,65.00
2023-05-10T16:35:35.041Z,68.50
2023-05-10T16:38:01.994Z,70.60
2023-05-10T16:40:33.713Z,75.20
2023-05-10T16:43:02.760Z,80.30
2023-05-10T16:45:34.564Z,83.30
2023-05-10T16:48:06.474Z,84.70
2023-05-10T16:50:38.339Z,85.60
2023-05-10T16:53:05.606Z,86.80
2023-05-10T16:55:35.017Z,87.10
2023-05-10T16:58:02.956Z,87.60
2023-05-10T17:00:29.974Z,88.00
2023-05-10T17:02:59.249Z,88.70
2023-05-10T17:05:29.264Z,88.80
2023-05-10T17:07:56.308Z,88.80
2023-05-10T17:10:26.045Z,89.20
2023-05-10T17:12:53.730Z,89.00
2023-05-10T17:15:23.305Z,89.00
2023-05-10T17:17:55.353Z,88.90
2023-05-10T17:20:22.508Z,88.90
2023-05-10T17:22:49.417Z,88.60
2023-05-10T17:25:16.668Z,88.20
2023-05-10T17:27:46.277Z,88.60
2023-05-10T17:30:22.626Z,88.80
2023-05-10T17:32:52.009Z,88.70
2023-05-10T17:35:24.078Z,88.40
2023-05-10T17:37:51.037Z,88.60
2023-05-10T17:40:18.357Z,88.70
2023-05-10T17:42:45.432Z,88.90
2023-05-10T17:45:12.403Z,87.20
2023-05-10T17:47:41.589Z,87.70
2023-05-10T17:50:11.765Z,88.00
2023-05-10T17:52:38.720Z,88.20
2023-05-10T17:55:08.785Z,88.90
2023-05-10T17:57:38.827Z,89.30
2023-05-10T18:00:09.258Z,89.70
2023-05-10T18:02:36.928Z,90.00
2023-05-10T18:05:04.776Z,89.90
2023-05-10T18:07:31.881Z,89.80
2023-05-10T18:10:01.852Z,89.60
2023-05-10T18:12:28.825Z,89.60
2023-05-10T18:14:57.972Z,89.60
2023-05-10T18:17:24.928Z,89.40
2023-05-10T18:19:52.217Z,89.40
2023-05-10T18:22:19.261Z,89.40
2023-05-10T18:24:48.530Z,89.70
2023-05-10T18:27:17.911Z,89.90
2023-05-10T18:29:50.333Z,90.30
2023-05-10T18:32:19.420Z,90.00
2023-05-10T18:34:46.352Z,89.50
2023-05-10T18:37:13.620Z,89.20
2023-05-10T18:39:40.887Z,89.30
2023-05-10T18:42:08.334Z,89.90
2023-05-10T18:44:38.262Z,90.20
2023-05-10T18:47:07.555Z,89.50
2023-05-10T18:49:36.932Z,89.00
2023-05-10T18:52:03.886Z,89.70
2023-05-10T18:54:30.847Z,89.70
2023-05-10T18:57:02.474Z,89.40
2023-05-10T18:59:29.408Z,89.70
2023-05-10T19:01:57.493Z,89.80
2023-05-10T19:04:29.124Z,89.60
2023-05-10T19:06:56.175Z,89.40
2023-05-10T19:09:23.522Z,89.80
2023-05-10T19:11:51.487Z,89.50
2023-05-10T19:14:18.529Z,89.60
2023-05-10T19:16:45.572Z,89.70
2023-05-10T19:19:14.216Z,89.40
2023-05-10T19:21:43.578Z,89.10
2023-05-10T19:24:10.749Z,89.10
2023-05-10T19:26:39.953Z,89.30
2023-05-10T19:29:11.949Z,89.70
2023-05-10T19:31:39.389Z,89.90
2023-05-10T19:34:11.019Z,90.00
2023-05-10T19:36:40.319Z,89.80
2023-05-10T19:39:07.321Z,90.00
2023-05-10T19:41:36.437Z,89.90
2023-05-10T19:44:03.541Z,90.00
2023-05-10T19:46:31.404Z,90.20
2023-05-10T19:48:58.373Z,90.30
2023-05-10T19:51:25.314Z,90.30
2023-05-10T19:53:52.248Z,90.20
2023-05-10T19:56:22.235Z,90.30
2023-05-10T19:58:51.692Z,90.60
2023-05-10T20:01:18.659Z,90.90
2023-05-10T20:03:45.712Z,91.00
2023-05-10T20:06:12.813Z,91.10
2023-05-10T20:08:39.829Z,91.40
2023-05-10T20:11:08.850Z,91.30
2023-05-10T20:13:38.495Z,91.40
2023-05-10T20:16:08.575Z,91.20
2023-05-10T20:18:35.626Z,91.10
2023-05-10T20:21:02.591Z,91.40
2023-05-10T20:23:33.912Z,91.00
2023-05-10T20:26:00.870Z,90.80
2023-05-10T20:28:30.235Z,90.80
2023-05-10T20:31:00.613Z,90.80
2023-05-10T20:33:27.584Z,90.80
2023-05-10T20:35:57.061Z,90.40
2023-05-10T20:38:23.986Z,90.20
2023-05-10T20:40:55.533Z,90.20
2023-05-10T20:43:22.495Z,88.70
2023-05-10T20:45:51.554Z,88.20
2023-05-10T20:48:18.753Z,87.90
2023-05-10T20:50:45.782Z,88.40
2023-05-10T20:53:14.554Z,88.30
2023-05-10T20:55:48.630Z,89.00
2023-05-10T20:58:15.689Z,89.20
2023-05-10T21:00:44.833Z,88.70
2023-05-10T21:03:17.055Z,89.00
2023-05-10T21:05:46.202Z,89.10
2023-05-10T21:08:15.754Z,89.50
2023-05-10T21:10:45.018Z,89.80
2023-05-10T21:13:11.969Z,90.10
2023-05-10T21:15:38.897Z,90.20
2023-05-10T21:18:06.326Z,90.50
2023-05-10T21:20:37.771Z,90.60
2023-05-10T21:23:07.719Z,90.90
2023-05-10T21:25:35.065Z,90.90
2023-05-10T21:28:01.993Z,90.90
2023-05-10T21:30:29.092Z,90.90
2023-05-10T21:32:59.636Z,91.00
2023-05-10T21:35:26.822Z,91.20
2023-05-10T21:37:53.889Z,90.90
2023-05-10T21:40:21.122Z,90.80
2023-05-10T21:42:53.678Z,90.80
2023-05-10T21:45:22.915Z,90.90
2023-05-10T21:47:49.899Z,90.80
2023-05-10T21:50:17.158Z,90.70
2023-05-10T21:52:44.432Z,90.80
2023-05-10T21:55:11.398Z,90.60
2023-05-10T21:57:44.335Z,90.50
2023-05-10T22:00:17.478Z,90.60
2023-05-10T22:02:44.656Z,90.70
2023-05-10T22:05:13.863Z,90.70
2023-05-10T22:07:40.798Z,90.60
2023-05-10T22:10:09.020Z,90.40
2023-05-10T22:12:38.151Z,90.20
2023-05-10T22:17:41.607Z,90.00
2023-05-10T22:20:12.596Z,90.30
2023-05-10T22:22:41.702Z,90.20
2023-05-10T22:25:11.147Z,90.30
2023-05-10T22:27:42.722Z,90.40
2023-05-10T22:30:10.033Z,90.20
2023-05-10T22:32:39.242Z,90.20
2023-05-10T22:35:08.930Z,90.20
2023-05-10T22:37:35.869Z,90.20
2023-05-10T22:40:02.809Z,90.30
2023-05-10T22:42:29.922Z,90.30
2023-05-10T22:44:56.854Z,90.50
2023-05-10T22:47:23.791Z,90.40
2023-05-10T22:49:50.796Z,90.20
2023-05-10T22:52:19.859Z,90.30
2023-05-10T22:54:51.681Z,90.40
2023-05-10T22:57:18.715Z,90.30
2023-05-10T22:59:48.857Z,90.30
2023-05-10T23:02:18.142Z,90.60
2023-05-10T23:04:45.417Z,90.50
2023-05-10T23:07:12.390Z,90.50
2023-05-10T23:09:39.271Z,90.40
2023-05-10T23:12:08.458Z,90.50
2023-05-10T23:14:35.380Z,90.10
2023-05-10T23:17:02.319Z,90.10
2023-05-10T23:19:29.229Z,90.10
2023-05-10T23:21:59.423Z,90.10
2023-05-10T23:24:26.364Z,90.00
2023-05-10T23:26:53.308Z,90.10
2023-05-10T23:29:23.910Z,90.00
2023-05-10T23:31:51.348Z,90.00
2023-05-10T23:34:20.544Z,90.00
2023-05-10T23:36:47.460Z,90.20
2023-05-10T23:39:14.364Z,90.10
2023-05-10T23:41:45.988Z,90.20
2023-05-10T23:44:13.045Z,90.10
2023-05-10T23:46:39.929Z,90.30
2023-05-10T23:49:09.093Z,90.00
2023-05-10T23:51:40.484Z,90.30
2023-05-10T23:54:09.908Z,90.30
2023-05-10T23:56:37.500Z,90.30
2023-05-10T23:59:06.771Z,90.10
